sensor_id;sensor_type;location;lat;lon;timestamp;temperature;humidity
14585;DHT22;7379;51.506;11.876;2023-08-21T00:00:08;25.60;72.30
14585;DHT22;7379;51.506;11.876;2023-08-21T00:02:35;25.60;72.40
14585;DHT22;7379;51.506;11.876;2023-08-21T00:05:01;25.60;72.40
14585;DHT22;7379;51.506;11.876;2023-08-21T00:07:28;25.60;72.50
14585;DHT22;7379;51.506;11.876;2023-08-21T00:09:55;25.60;72.50
14585;DHT22;7379;51.506;11.876;2023-08-21T00:12:22;25.60;72.60
14585;DHT22;7379;51.506;11.876;2023-08-21T00:14:48;25.60;72.60
14585;DHT22;7379;51.506;11.876;2023-08-21T00:17:16;25.50;72.50
14585;DHT22;7379;51.506;11.876;2023-08-21T00:19:43;25.50;72.60
14585;DHT22;7379;51.506;11.876;2023-08-21T00:22:10;25.50;72.70
14585;DHT22;7379;51.506;11.876;2023-08-21T00:24:36;25.50;72.70
14585;DHT22;7379;51.506;11.876;2023-08-21T00:27:03;25.50;72.80
14585;DHT22;7379;51.506;11.876;2023-08-21T00:29:30;25.50;72.80
14585;DHT22;7379;51.506;11.876;2023-08-21T00:31:56;25.40;72.80
14585;DHT22;7379;51.506;11.876;2023-08-21T00:34:24;25.50;72.90
14585;DHT22;7379;51.506;11.876;2023-08-21T00:36:51;25.40;72.90
14585;DHT22;7379;51.506;11.876;2023-08-21T00:39:18;25.40;73.00
14585;DHT22;7379;51.506;11.876;2023-08-21T00:41:45;25.40;73.00
14585;DHT22;7379;51.506;11.876;2023-08-21T00:44:11;25.40;73.00
14585;DHT22;7379;51.506;11.876;2023-08-21T00:46:38;25.30;73.00
14585;DHT22;7379;51.506;11.876;2023-08-21T00:49:05;25.30;73.00
14585;DHT22;7379;51.506;11.876;2023-08-21T00:51:33;25.30;73.00
14585;DHT22;7379;51.506;11.876;2023-08-21T00:54:00;25.30;73.10
14585;DHT22;7379;51.506;11.876;2023-08-21T00:56:27;25.30;73.10
14585;DHT22;7379;51.506;11.876;2023-08-21T00:58:54;25.30;73.10
14585;DHT22;7379;51.506;11.876;2023-08-21T01:01:24;25.30;73.10
14585;DHT22;7379;51.506;11.876;2023-08-21T01:03:51;25.30;73.20
14585;DHT22;7379;51.506;11.876;2023-08-21T01:06:18;25.20;73.10
14585;DHT22;7379;51.506;11.876;2023-08-21T01:08:53;25.20;73.10
14585;DHT22;7379;51.506;11.876;2023-08-21T01:11:26;25.20;73.20
14585;DHT22;7379;51.506;11.876;2023-08-21T01:14:03;25.20;73.20
14585;DHT22;7379;51.506;11.876;2023-08-21T01:16:33;25.20;73.20
14585;DHT22;7379;51.506;11.876;2023-08-21T01:19:01;25.20;73.20
14585;DHT22;7379;51.506;11.876;2023-08-21T01:21:30;25.10;73.20
14585;DHT22;7379;51.506;11.876;2023-08-21T01:23:58;25.10;73.30
14585;DHT22;7379;51.506;11.876;2023-08-21T01:26:25;25.10;73.30
14585;DHT22;7379;51.506;11.876;2023-08-21T01:28:51;25.10;73.30
14585;DHT22;7379;51.506;11.876;2023-08-21T01:31:21;25.10;73.30
14585;DHT22;7379;51.506;11.876;2023-08-21T01:33:53;25.10;73.40
14585;DHT22;7379;51.506;11.876;2023-08-21T01:36:23;25.00;73.30
14585;DHT22;7379;51.506;11.876;2023-08-21T01:38:50;25.00;73.30
14585;DHT22;7379;51.506;11.876;2023-08-21T01:41:18;25.00;73.40
14585;DHT22;7379;51.506;11.876;2023-08-21T01:43:45;25.00;73.40
14585;DHT22;7379;51.506;11.876;2023-08-21T01:46:12;25.00;73.40
14585;DHT22;7379;51.506;11.876;2023-08-21T01:48:39;25.00;73.40
14585;DHT22;7379;51.506;11.876;2023-08-21T01:51:05;25.00;73.50
14585;DHT22;7379;51.506;11.876;2023-08-21T01:53:32;25.00;73.50
14585;DHT22;7379;51.506;11.876;2023-08-21T01:55:59;24.90;73.40
14585;DHT22;7379;51.506;11.876;2023-08-21T01:58:27;24.90;73.40
14585;DHT22;7379;51.506;11.876;2023-08-21T02:00:54;24.90;73.40
14585;DHT22;7379;51.506;11.876;2023-08-21T02:03:20;24.90;73.40
14585;DHT22;7379;51.506;11.876;2023-08-21T02:05:47;24.90;73.50
14585;DHT22;7379;51.506;11.876;2023-08-21T02:08:14;24.80;73.40
14585;DHT22;7379;51.506;11.876;2023-08-21T02:10:48;24.90;73.50
14585;DHT22;7379;51.506;11.876;2023-08-21T02:13:15;24.80;73.50
14585;DHT22;7379;51.506;11.876;2023-08-21T02:15:43;24.80;73.50
14585;DHT22;7379;51.506;11.876;2023-08-21T02:18:10;24.80;73.50
14585;DHT22;7379;51.506;11.876;2023-08-21T02:20:37;24.80;73.50
14585;DHT22;7379;51.506;11.876;2023-08-21T02:23:04;24.80;73.60
14585;DHT22;7379;51.506;11.876;2023-08-21T02:25:31;24.80;73.60
14585;DHT22;7379;51.506;11.876;2023-08-21T02:27:58;24.80;73.60
14585;DHT22;7379;51.506;11.876;2023-08-21T02:30:27;24.80;73.60
14585;DHT22;7379;51.506;11.876;2023-08-21T02:32:55;24.70;73.60
14585;DHT22;7379;51.506;11.876;2023-08-21T02:35:22;24.70;73.60
14585;DHT22;7379;51.506;11.876;2023-08-21T02:37:48;24.70;73.60
14585;DHT22;7379;51.506;11.876;2023-08-21T02:40:15;24.70;73.60
14585;DHT22;7379;51.506;11.876;2023-08-21T02:42:42;24.70;73.70
14585;DHT22;7379;51.506;11.876;2023-08-21T02:45:09;24.60;73.60
14585;DHT22;7379;51.506;11.876;2023-08-21T02:47:37;24.70;73.80
14585;DHT22;7379;51.506;11.876;2023-08-21T02:50:06;24.60;73.70
14585;DHT22;7379;51.506;11.876;2023-08-21T02:52:34;24.60;73.80
14585;DHT22;7379;51.506;11.876;2023-08-21T02:55:01;24.60;73.80
14585;DHT22;7379;51.506;11.876;2023-08-21T02:57:28;24.60;73.80
14585;DHT22;7379;51.506;11.876;2023-08-21T02:59:56;24.60;73.80
14585;DHT22;7379;51.506;11.876;2023-08-21T03:02:24;24.50;73.80
14585;DHT22;7379;51.506;11.876;2023-08-21T03:04:50;24.60;73.90
14585;DHT22;7379;51.506;11.876;2023-08-21T03:07:19;24.60;74.00
14585;DHT22;7379;51.506;11.876;2023-08-21T03:09:46;24.50;73.90
14585;DHT22;7379;51.506;11.876;2023-08-21T03:12:13;24.50;74.00
14585;DHT22;7379;51.506;11.876;2023-08-21T03:14:40;24.50;74.00
14585;DHT22;7379;51.506;11.876;2023-08-21T03:17:07;24.50;74.00
14585;DHT22;7379;51.506;11.876;2023-08-21T03:19:33;24.50;74.10
14585;DHT22;7379;51.506;11.876;2023-08-21T03:22:00;24.50;74.10
14585;DHT22;7379;51.506;11.876;2023-08-21T03:24:28;24.40;74.10
14585;DHT22;7379;51.506;11.876;2023-08-21T03:26:55;24.40;74.10
14585;DHT22;7379;51.506;11.876;2023-08-21T03:29:22;24.40;74.10
14585;DHT22;7379;51.506;11.876;2023-08-21T03:31:49;24.40;74.20
14585;DHT22;7379;51.506;11.876;2023-08-21T03:34:16;24.40;74.20
14585;DHT22;7379;51.506;11.876;2023-08-21T03:36:42;24.40;74.20
14585;DHT22;7379;51.506;11.876;2023-08-21T03:39:09;24.40;74.20
14585;DHT22;7379;51.506;11.876;2023-08-21T03:41:38;24.40;74.20
14585;DHT22;7379;51.506;11.876;2023-08-21T03:44:04;24.40;74.30
14585;DHT22;7379;51.506;11.876;2023-08-21T03:46:31;24.30;74.20
14585;DHT22;7379;51.506;11.876;2023-08-21T03:48:58;24.30;74.30
14585;DHT22;7379;51.506;11.876;2023-08-21T03:51:25;24.30;74.30
14585;DHT22;7379;51.506;11.876;2023-08-21T03:53:51;24.30;74.30
14585;DHT22;7379;51.506;11.876;2023-08-21T03:56:18;24.30;74.30
14585;DHT22;7379;51.506;11.876;2023-08-21T03:58:46;24.30;74.40
14585;DHT22;7379;51.506;11.876;2023-08-21T04:01:13;24.30;74.40
14585;DHT22;7379;51.506;11.876;2023-08-21T04:03:41;24.30;74.40
14585;DHT22;7379;51.506;11.876;2023-08-21T04:06:08;24.30;74.40
14585;DHT22;7379;51.506;11.876;2023-08-21T04:08:34;24.20;74.40
14585;DHT22;7379;51.506;11.876;2023-08-21T04:11:01;24.20;74.40
14585;DHT22;7379;51.506;11.876;2023-08-21T04:13:28;24.20;74.40
14585;DHT22;7379;51.506;11.876;2023-08-21T04:15:56;24.20;74.50
14585;DHT22;7379;51.506;11.876;2023-08-21T04:18:23;24.20;74.50
14585;DHT22;7379;51.506;11.876;2023-08-21T04:20:50;24.20;74.50
14585;DHT22;7379;51.506;11.876;2023-08-21T04:23:17;24.20;74.60
14585;DHT22;7379;51.506;11.876;2023-08-21T04:25:43;24.20;74.60
14585;DHT22;7379;51.506;11.876;2023-08-21T04:28:10;24.20;74.60
14585;DHT22;7379;51.506;11.876;2023-08-21T04:30:39;24.20;74.60
14585;DHT22;7379;51.506;11.876;2023-08-21T04:33:07;24.10;74.60
14585;DHT22;7379;51.506;11.876;2023-08-21T04:35:37;24.10;74.60
14585;DHT22;7379;51.506;11.876;2023-08-21T04:38:04;24.10;74.60
14585;DHT22;7379;51.506;11.876;2023-08-21T04:40:30;24.10;74.70
14585;DHT22;7379;51.506;11.876;2023-08-21T04:42:57;24.10;74.70
14585;DHT22;7379;51.506;11.876;2023-08-21T04:45:24;24.10;74.80
14585;DHT22;7379;51.506;11.876;2023-08-21T04:47:51;24.10;74.80
14585;DHT22;7379;51.506;11.876;2023-08-21T04:50:19;24.10;74.70
14585;DHT22;7379;51.506;11.876;2023-08-21T04:52:46;24.10;74.80
14585;DHT22;7379;51.506;11.876;2023-08-21T04:55:14;24.10;74.80
14585;DHT22;7379;51.506;11.876;2023-08-21T04:57:41;24.10;74.90
14585;DHT22;7379;51.506;11.876;2023-08-21T05:00:09;24.10;74.90
14585;DHT22;7379;51.506;11.876;2023-08-21T05:02:36;24.10;74.90
14585;DHT22;7379;51.506;11.876;2023-08-21T05:05:03;24.10;74.90
14585;DHT22;7379;51.506;11.876;2023-08-21T05:07:32;24.00;74.90
14585;DHT22;7379;51.506;11.876;2023-08-21T05:09:59;24.00;74.90
14585;DHT22;7379;51.506;11.876;2023-08-21T05:12:26;24.00;74.90
14585;DHT22;7379;51.506;11.876;2023-08-21T05:14:53;24.00;75.00
14585;DHT22;7379;51.506;11.876;2023-08-21T05:17:20;24.00;75.00
14585;DHT22;7379;51.506;11.876;2023-08-21T05:19:46;24.00;75.00
14585;DHT22;7379;51.506;11.876;2023-08-21T05:22:13;24.00;75.00
14585;DHT22;7379;51.506;11.876;2023-08-21T05:24:41;24.00;75.00
14585;DHT22;7379;51.506;11.876;2023-08-21T05:27:08;24.00;75.00
14585;DHT22;7379;51.506;11.876;2023-08-21T05:29:35;23.90;75.00
14585;DHT22;7379;51.506;11.876;2023-08-21T05:32:01;24.00;75.00
14585;DHT22;7379;51.506;11.876;2023-08-21T05:34:28;24.00;75.00
14585;DHT22;7379;51.506;11.876;2023-08-21T05:36:55;24.00;75.00
14585;DHT22;7379;51.506;11.876;2023-08-21T05:39:21;24.00;75.00
14585;DHT22;7379;51.506;11.876;2023-08-21T05:41:49;23.90;75.00
14585;DHT22;7379;51.506;11.876;2023-08-21T05:44:16;24.00;75.10
14585;DHT22;7379;51.506;11.876;2023-08-21T05:46:43;23.90;75.00
14585;DHT22;7379;51.506;11.876;2023-08-21T05:49:09;23.90;75.00
14585;DHT22;7379;51.506;11.876;2023-08-21T05:51:36;23.90;75.00
14585;DHT22;7379;51.506;11.876;2023-08-21T05:54:03;23.90;75.00
14585;DHT22;7379;51.506;11.876;2023-08-21T05:56:30;23.90;75.10
14585;DHT22;7379;51.506;11.876;2023-08-21T05:58:58;23.90;75.10
14585;DHT22;7379;51.506;11.876;2023-08-21T06:01:24;23.90;75.00
14585;DHT22;7379;51.506;11.876;2023-08-21T06:03:51;23.90;75.10
14585;DHT22;7379;51.506;11.876;2023-08-21T06:06:18;23.90;75.10
14585;DHT22;7379;51.506;11.876;2023-08-21T06:08:45;23.90;75.10
14585;DHT22;7379;51.506;11.876;2023-08-21T06:11:11;23.90;75.10
14585;DHT22;7379;51.506;11.876;2023-08-21T06:13:40;23.90;75.10
14585;DHT22;7379;51.506;11.876;2023-08-21T06:16:08;23.90;75.10
14585;DHT22;7379;51.506;11.876;2023-08-21T06:18:34;23.90;75.10
14585;DHT22;7379;51.506;11.876;2023-08-21T06:21:01;23.90;75.10
14585;DHT22;7379;51.506;11.876;2023-08-21T06:23:28;23.90;75.10
14585;DHT22;7379;51.506;11.876;2023-08-21T06:25:54;23.90;75.20
14585;DHT22;7379;51.506;11.876;2023-08-21T06:28:21;23.80;75.10
14585;DHT22;7379;51.506;11.876;2023-08-21T06:30:55;23.80;75.10
14585;DHT22;7379;51.506;11.876;2023-08-21T06:33:24;23.80;75.10
14585;DHT22;7379;51.506;11.876;2023-08-21T06:35:50;23.80;75.10
14585;DHT22;7379;51.506;11.876;2023-08-21T06:38:17;23.80;75.10
14585;DHT22;7379;51.506;11.876;2023-08-21T06:40:44;23.80;75.10
14585;DHT22;7379;51.506;11.876;2023-08-21T06:43:11;23.80;75.10
14585;DHT22;7379;51.506;11.876;2023-08-21T06:45:38;23.80;75.10
14585;DHT22;7379;51.506;11.876;2023-08-21T06:48:05;23.70;75.10
14585;DHT22;7379;51.506;11.876;2023-08-21T06:50:33;23.70;75.10
14585;DHT22;7379;51.506;11.876;2023-08-21T06:53:00;23.70;75.20
14585;DHT22;7379;51.506;11.876;2023-08-21T06:55:27;23.70;75.40
14585;DHT22;7379;51.506;11.876;2023-08-21T06:57:53;23.70;75.50
14585;DHT22;7379;51.506;11.876;2023-08-21T07:00:20;23.70;75.50
14585;DHT22;7379;51.506;11.876;2023-08-21T07:02:47;23.70;75.50
14585;DHT22;7379;51.506;11.876;2023-08-21T07:05:13;23.70;75.50
14585;DHT22;7379;51.506;11.876;2023-08-21T07:07:42;23.70;75.60
14585;DHT22;7379;51.506;11.876;2023-08-21T07:10:09;23.70;75.60
14585;DHT22;7379;51.506;11.876;2023-08-21T07:12:36;23.70;75.70
14585;DHT22;7379;51.506;11.876;2023-08-21T07:15:03;23.70;75.70
14585;DHT22;7379;51.506;11.876;2023-08-21T07:17:30;23.70;75.70
14585;DHT22;7379;51.506;11.876;2023-08-21T07:19:56;23.70;75.80
14585;DHT22;7379;51.506;11.876;2023-08-21T07:22:23;23.70;75.90
14585;DHT22;7379;51.506;11.876;2023-08-21T07:24:51;23.70;75.90
14585;DHT22;7379;51.506;11.876;2023-08-21T07:27:18;23.70;76.00
14585;DHT22;7379;51.506;11.876;2023-08-21T07:29:45;23.70;76.10
14585;DHT22;7379;51.506;11.876;2023-08-21T07:32:11;23.70;76.10
14585;DHT22;7379;51.506;11.876;2023-08-21T07:34:38;23.70;76.20
14585;DHT22;7379;51.506;11.876;2023-08-21T07:37:07;23.70;76.20
14585;DHT22;7379;51.506;11.876;2023-08-21T07:39:34;23.70;76.20
14585;DHT22;7379;51.506;11.876;2023-08-21T07:42:02;23.70;76.30
14585;DHT22;7379;51.506;11.876;2023-08-21T07:44:29;23.70;76.40
14585;DHT22;7379;51.506;11.876;2023-08-21T07:46:55;23.70;76.40
14585;DHT22;7379;51.506;11.876;2023-08-21T07:49:22;23.70;76.30
14585;DHT22;7379;51.506;11.876;2023-08-21T07:51:49;23.70;76.50
14585;DHT22;7379;51.506;11.876;2023-08-21T07:54:15;23.70;76.50
14585;DHT22;7379;51.506;11.876;2023-08-21T07:56:42;23.70;76.60
14585;DHT22;7379;51.506;11.876;2023-08-21T07:59:10;23.70;76.50
14585;DHT22;7379;51.506;11.876;2023-08-21T08:01:37;23.70;76.50
14585;DHT22;7379;51.506;11.876;2023-08-21T08:04:04;23.70;76.60
14585;DHT22;7379;51.506;11.876;2023-08-21T08:06:31;23.70;76.60
14585;DHT22;7379;51.506;11.876;2023-08-21T08:08:58;23.70;76.60
14585;DHT22;7379;51.506;11.876;2023-08-21T08:11:25;23.70;76.60
14585;DHT22;7379;51.506;11.876;2023-08-21T08:13:52;23.70;76.60
14585;DHT22;7379;51.506;11.876;2023-08-21T08:16:20;23.70;76.80
14585;DHT22;7379;51.506;11.876;2023-08-21T08:18:47;23.70;76.80
14585;DHT22;7379;51.506;11.876;2023-08-21T08:21:14;23.70;76.90
14585;DHT22;7379;51.506;11.876;2023-08-21T08:23:40;23.70;77.00
14585;DHT22;7379;51.506;11.876;2023-08-21T08:26:07;23.70;77.00
14585;DHT22;7379;51.506;11.876;2023-08-21T08:28:34;23.80;77.10
14585;DHT22;7379;51.506;11.876;2023-08-21T08:31:01;23.80;77.20
14585;DHT22;7379;51.506;11.876;2023-08-21T08:33:29;23.80;77.10
14585;DHT22;7379;51.506;11.876;2023-08-21T08:35:56;23.80;77.00
14585;DHT22;7379;51.506;11.876;2023-08-21T08:38:23;23.80;76.90
14585;DHT22;7379;51.506;11.876;2023-08-21T08:40:51;23.80;76.90
14585;DHT22;7379;51.506;11.876;2023-08-21T08:43:20;23.80;77.00
14585;DHT22;7379;51.506;11.876;2023-08-21T08:45:49;23.80;76.90
14585;DHT22;7379;51.506;11.876;2023-08-21T08:48:18;23.80;76.70
14585;DHT22;7379;51.506;11.876;2023-08-21T08:50:47;23.90;76.80
14585;DHT22;7379;51.506;11.876;2023-08-21T08:53:18;23.90;76.60
14585;DHT22;7379;51.506;11.876;2023-08-21T08:55:45;23.90;76.50
14585;DHT22;7379;51.506;11.876;2023-08-21T08:58:12;23.90;76.50
14585;DHT22;7379;51.506;11.876;2023-08-21T09:00:38;23.90;76.30
14585;DHT22;7379;51.506;11.876;2023-08-21T09:03:05;23.90;75.80
14585;DHT22;7379;51.506;11.876;2023-08-21T09:05:33;23.90;75.70
14585;DHT22;7379;51.506;11.876;2023-08-21T09:08:09;23.90;75.60
14585;DHT22;7379;51.506;11.876;2023-08-21T09:10:37;23.90;75.50
14585;DHT22;7379;51.506;11.876;2023-08-21T09:13:09;23.90;75.40
14585;DHT22;7379;51.506;11.876;2023-08-21T09:15:36;23.90;75.50
14585;DHT22;7379;51.506;11.876;2023-08-21T09:18:03;23.90;75.40
14585;DHT22;7379;51.506;11.876;2023-08-21T09:20:35;23.90;75.30
14585;DHT22;7379;51.506;11.876;2023-08-21T09:23:02;23.90;75.00
14585;DHT22;7379;51.506;11.876;2023-08-21T09:25:34;23.90;74.50
14585;DHT22;7379;51.506;11.876;2023-08-21T09:28:04;23.90;73.80
14585;DHT22;7379;51.506;11.876;2023-08-21T09:30:43;23.90;73.70
14585;DHT22;7379;51.506;11.876;2023-08-21T09:33:10;23.90;73.80
14585;DHT22;7379;51.506;11.876;2023-08-21T09:35:37;23.90;73.70
14585;DHT22;7379;51.506;11.876;2023-08-21T09:38:05;23.90;73.40
14585;DHT22;7379;51.506;11.876;2023-08-21T09:40:33;23.90;73.20
14585;DHT22;7379;51.506;11.876;2023-08-21T09:43:03;23.80;73.00
14585;DHT22;7379;51.506;11.876;2023-08-21T09:45:30;23.80;72.60
14585;DHT22;7379;51.506;11.876;2023-08-21T09:47:57;23.90;72.70
14585;DHT22;7379;51.506;11.876;2023-08-21T09:50:25;23.80;72.50
14585;DHT22;7379;51.506;11.876;2023-08-21T09:52:53;23.80;72.20
14585;DHT22;7379;51.506;11.876;2023-08-21T09:55:20;23.80;72.30
14585;DHT22;7379;51.506;11.876;2023-08-21T09:57:50;23.90;72.40
14585;DHT22;7379;51.506;11.876;2023-08-21T10:00:24;23.90;71.90
14585;DHT22;7379;51.506;11.876;2023-08-21T10:02:51;23.80;71.70
14585;DHT22;7379;51.506;11.876;2023-08-21T10:05:18;23.80;71.60
14585;DHT22;7379;51.506;11.876;2023-08-21T10:07:47;23.80;71.80
14585;DHT22;7379;51.506;11.876;2023-08-21T10:10:15;23.80;71.70
14585;DHT22;7379;51.506;11.876;2023-08-21T10:12:42;23.80;71.60
14585;DHT22;7379;51.506;11.876;2023-08-21T10:15:11;23.80;71.20
14585;DHT22;7379;51.506;11.876;2023-08-21T10:17:38;23.90;71.10
14585;DHT22;7379;51.506;11.876;2023-08-21T10:20:07;23.90;71.10
14585;DHT22;7379;51.506;11.876;2023-08-21T10:22:39;23.90;70.80
14585;DHT22;7379;51.506;11.876;2023-08-21T10:25:16;23.90;70.70
14585;DHT22;7379;51.506;11.876;2023-08-21T10:27:43;23.90;70.50
14585;DHT22;7379;51.506;11.876;2023-08-21T10:30:15;23.90;70.50
14585;DHT22;7379;51.506;11.876;2023-08-21T10:32:46;23.90;70.30
14585;DHT22;7379;51.506;11.876;2023-08-21T10:35:18;23.90;70.10
14585;DHT22;7379;51.506;11.876;2023-08-21T10:38:10;23.90;69.60
14585;DHT22;7379;51.506;11.876;2023-08-21T10:40:38;23.90;69.50
14585;DHT22;7379;51.506;11.876;2023-08-21T10:43:38;24.00;69.50
14585;DHT22;7379;51.506;11.876;2023-08-21T10:46:07;24.00;68.90
14585;DHT22;7379;51.506;11.876;2023-08-21T10:48:34;24.00;68.80
14585;DHT22;7379;51.506;11.876;2023-08-21T10:51:02;24.10;68.80
14585;DHT22;7379;51.506;11.876;2023-08-21T10:53:30;24.00;68.80
14585;DHT22;7379;51.506;11.876;2023-08-21T10:55:57;24.00;68.70
14585;DHT22;7379;51.506;11.876;2023-08-21T10:58:27;24.00;68.60
14585;DHT22;7379;51.506;11.876;2023-08-21T11:00:57;24.10;68.40
14585;DHT22;7379;51.506;11.876;2023-08-21T11:03:25;24.10;68.60
14585;DHT22;7379;51.506;11.876;2023-08-21T11:06:02;24.10;68.40
14585;DHT22;7379;51.506;11.876;2023-08-21T11:08:29;24.10;68.30
14585;DHT22;7379;51.506;11.876;2023-08-21T11:10:57;24.10;68.20
14585;DHT22;7379;51.506;11.876;2023-08-21T11:13:24;24.10;68.30
14585;DHT22;7379;51.506;11.876;2023-08-21T11:15:57;24.10;68.20
14585;DHT22;7379;51.506;11.876;2023-08-21T11:18:31;24.10;68.50
14585;DHT22;7379;51.506;11.876;2023-08-21T11:21:08;24.10;67.90
14585;DHT22;7379;51.506;11.876;2023-08-21T11:23:37;24.10;67.60
14585;DHT22;7379;51.506;11.876;2023-08-21T11:26:05;24.20;67.40
14585;DHT22;7379;51.506;11.876;2023-08-21T11:28:32;24.10;67.50
14585;DHT22;7379;51.506;11.876;2023-08-21T11:30:59;24.20;66.90
14585;DHT22;7379;51.506;11.876;2023-08-21T11:33:26;24.20;66.20
14585;DHT22;7379;51.506;11.876;2023-08-21T11:35:55;24.20;67.00
14585;DHT22;7379;51.506;11.876;2023-08-21T11:38:26;24.30;66.10
14585;DHT22;7379;51.506;11.876;2023-08-21T11:40:54;24.30;66.30
14585;DHT22;7379;51.506;11.876;2023-08-21T11:43:21;24.30;66.20
14585;DHT22;7379;51.506;11.876;2023-08-21T11:45:48;24.40;65.80
14585;DHT22;7379;51.506;11.876;2023-08-21T11:48:15;24.40;66.30
14585;DHT22;7379;51.506;11.876;2023-08-21T11:50:47;24.40;66.90
14585;DHT22;7379;51.506;11.876;2023-08-21T11:53:31;24.30;67.00
14585;DHT22;7379;51.506;11.876;2023-08-21T11:55:57;24.30;67.10
14585;DHT22;7379;51.506;11.876;2023-08-21T11:58:26;24.30;67.30
14585;DHT22;7379;51.506;11.876;2023-08-21T12:00:53;24.30;67.10
14585;DHT22;7379;51.506;11.876;2023-08-21T12:03:20;24.30;66.90
14585;DHT22;7379;51.506;11.876;2023-08-21T12:05:46;24.40;67.00
14585;DHT22;7379;51.506;11.876;2023-08-21T12:08:13;24.50;66.60
14585;DHT22;7379;51.506;11.876;2023-08-21T12:10:41;24.40;66.80
14585;DHT22;7379;51.506;11.876;2023-08-21T12:13:08;24.40;66.90
14585;DHT22;7379;51.506;11.876;2023-08-21T12:15:34;24.40;67.00
14585;DHT22;7379;51.506;11.876;2023-08-21T12:18:01;24.50;67.10
14585;DHT22;7379;51.506;11.876;2023-08-21T12:20:28;24.50;67.00
14585;DHT22;7379;51.506;11.876;2023-08-21T12:22:55;24.50;66.80
14585;DHT22;7379;51.506;11.876;2023-08-21T12:25:21;24.50;66.80
14585;DHT22;7379;51.506;11.876;2023-08-21T12:27:50;24.50;66.60
14585;DHT22;7379;51.506;11.876;2023-08-21T12:30:17;24.60;66.40
14585;DHT22;7379;51.506;11.876;2023-08-21T12:32:44;24.70;66.50
14585;DHT22;7379;51.506;11.876;2023-08-21T12:35:11;24.70;66.40
14585;DHT22;7379;51.506;11.876;2023-08-21T12:37:37;24.80;66.30
14585;DHT22;7379;51.506;11.876;2023-08-21T12:40:06;24.80;66.30
14585;DHT22;7379;51.506;11.876;2023-08-21T12:42:33;24.80;66.10
14585;DHT22;7379;51.506;11.876;2023-08-21T12:45:01;24.80;66.00
14585;DHT22;7379;51.506;11.876;2023-08-21T12:47:28;24.90;66.10
14585;DHT22;7379;51.506;11.876;2023-08-21T12:49:55;24.90;65.80
14585;DHT22;7379;51.506;11.876;2023-08-21T12:52:22;25.00;65.60
14585;DHT22;7379;51.506;11.876;2023-08-21T12:54:48;25.00;66.40
14585;DHT22;7379;51.506;11.876;2023-08-21T12:57:15;25.10;65.60
14585;DHT22;7379;51.506;11.876;2023-08-21T12:59:42;25.10;65.50
14585;DHT22;7379;51.506;11.876;2023-08-21T13:02:10;25.10;64.90
14585;DHT22;7379;51.506;11.876;2023-08-21T13:04:37;25.20;65.00
14585;DHT22;7379;51.506;11.876;2023-08-21T13:07:04;25.50;63.60
14585;DHT22;7379;51.506;11.876;2023-08-21T13:09:31;25.50;64.10
14585;DHT22;7379;51.506;11.876;2023-08-21T13:11:59;25.70;62.60
14585;DHT22;7379;51.506;11.876;2023-08-21T13:14:26;25.80;63.40
14585;DHT22;7379;51.506;11.876;2023-08-21T13:16:52;25.80;63.60
14585;DHT22;7379;51.506;11.876;2023-08-21T13:19:21;25.70;63.50
14585;DHT22;7379;51.506;11.876;2023-08-21T13:21:47;25.70;63.50
14585;DHT22;7379;51.506;11.876;2023-08-21T13:24:14;25.60;63.70
14585;DHT22;7379;51.506;11.876;2023-08-21T13:26:41;25.60;63.50
14585;DHT22;7379;51.506;11.876;2023-08-21T13:29:08;25.60;64.00
14585;DHT22;7379;51.506;11.876;2023-08-21T13:31:34;25.60;63.70
14585;DHT22;7379;51.506;11.876;2023-08-21T13:34:02;25.50;64.00
14585;DHT22;7379;51.506;11.876;2023-08-21T13:36:30;25.50;65.20
14585;DHT22;7379;51.506;11.876;2023-08-21T13:38:57;25.50;64.30
14585;DHT22;7379;51.506;11.876;2023-08-21T13:41:24;25.50;64.30
14585;DHT22;7379;51.506;11.876;2023-08-21T13:43:51;25.50;64.20
14585;DHT22;7379;51.506;11.876;2023-08-21T13:46:19;25.50;64.40
14585;DHT22;7379;51.506;11.876;2023-08-21T13:48:46;25.50;64.70
14585;DHT22;7379;51.506;11.876;2023-08-21T13:51:13;25.50;64.70
14585;DHT22;7379;51.506;11.876;2023-08-21T13:53:41;25.60;64.40
14585;DHT22;7379;51.506;11.876;2023-08-21T13:56:08;25.70;64.50
14585;DHT22;7379;51.506;11.876;2023-08-21T13:58:34;25.70;64.30
14585;DHT22;7379;51.506;11.876;2023-08-21T14:01:01;25.60;64.30
14585;DHT22;7379;51.506;11.876;2023-08-21T14:03:29;25.60;64.60
14585;DHT22;7379;51.506;11.876;2023-08-21T14:05:55;25.60;64.60
14585;DHT22;7379;51.506;11.876;2023-08-21T14:08:22;25.60;64.70
14585;DHT22;7379;51.506;11.876;2023-08-21T14:10:50;25.60;64.50
14585;DHT22;7379;51.506;11.876;2023-08-21T14:13:17;25.60;64.60
14585;DHT22;7379;51.506;11.876;2023-08-21T14:15:44;25.70;64.90
14585;DHT22;7379;51.506;11.876;2023-08-21T14:18:10;25.70;64.30
14585;DHT22;7379;51.506;11.876;2023-08-21T14:20:37;25.70;64.30
14585;DHT22;7379;51.506;11.876;2023-08-21T14:23:04;25.70;64.30
14585;DHT22;7379;51.506;11.876;2023-08-21T14:25:31;25.70;64.30
14585;DHT22;7379;51.506;11.876;2023-08-21T14:27:59;25.70;64.50
14585;DHT22;7379;51.506;11.876;2023-08-21T14:30:27;25.70;65.00
14585;DHT22;7379;51.506;11.876;2023-08-21T14:32:53;25.70;65.00
14585;DHT22;7379;51.506;11.876;2023-08-21T14:35:20;25.70;64.80
14585;DHT22;7379;51.506;11.876;2023-08-21T14:37:47;25.60;64.60
14585;DHT22;7379;51.506;11.876;2023-08-21T14:40:14;25.60;64.80
14585;DHT22;7379;51.506;11.876;2023-08-21T14:42:41;25.60;65.00
14585;DHT22;7379;51.506;11.876;2023-08-21T14:45:10;25.70;65.40
14585;DHT22;7379;51.506;11.876;2023-08-21T14:47:37;25.70;64.70
14585;DHT22;7379;51.506;11.876;2023-08-21T14:50:05;25.80;65.20
14585;DHT22;7379;51.506;11.876;2023-08-21T14:52:32;25.80;64.70
14585;DHT22;7379;51.506;11.876;2023-08-21T14:54:59;25.80;64.70
14585;DHT22;7379;51.506;11.876;2023-08-21T14:57:25;25.80;64.40
14585;DHT22;7379;51.506;11.876;2023-08-21T14:59:52;25.80;64.90
14585;DHT22;7379;51.506;11.876;2023-08-21T15:02:20;25.80;64.90
14585;DHT22;7379;51.506;11.876;2023-08-21T15:04:47;25.90;65.20
14585;DHT22;7379;51.506;11.876;2023-08-21T15:07:14;26.00;64.70
14585;DHT22;7379;51.506;11.876;2023-08-21T15:09:41;26.20;64.40
14585;DHT22;7379;51.506;11.876;2023-08-21T15:12:08;26.30;63.80
14585;DHT22;7379;51.506;11.876;2023-08-21T15:14:35;26.40;63.80
14585;DHT22;7379;51.506;11.876;2023-08-21T15:17:02;26.50;63.20
14585;DHT22;7379;51.506;11.876;2023-08-21T15:19:30;26.60;63.20
14585;DHT22;7379;51.506;11.876;2023-08-21T15:21:57;26.70;62.70
14585;DHT22;7379;51.506;11.876;2023-08-21T15:24:23;26.80;62.60
14585;DHT22;7379;51.506;11.876;2023-08-21T15:26:50;26.90;62.30
14585;DHT22;7379;51.506;11.876;2023-08-21T15:29:17;26.90;62.20
14585;DHT22;7379;51.506;11.876;2023-08-21T15:31:44;27.00;61.90